Station Historical Data
Daily Summary for June 9, 2017 Units:  Both    English   Metric
« Previous Day
Next Day »
Daily Weekly Monthly Yearly Custom
  High: Low: Average:
Temperature: 71.5 °F /  21.9 °C 52.0 °F /  11.1 °C 63.3 °F /  17.4 °C
Dew Point: 57.5 °F /  14.2 °C 48.3 °F /  9.1 °C 53.3 °F /  11.8 °C
Humidity: 87% 55% 71%
Wind Speed: 14.0mph /  22.5km/h - 4.3mph /  6.9km/h
Wind Gust: 20.0mph /  32.2km/h - -
Wind- - WSW
Pressure: 29.85 in /  1010.7 hPa 29.78 in /  1008.4 hPa -
Precipitation: 0.00 in /  0 mm    
Historical Graphs
 
 
Tabular Data for June 9, 2017
Time Temperature Dew Point Pressure Wind Wind Speed Wind Gust Humidity Rainfall Rate (Hourly)
00:04 58.8 °F /  14.9 °C 52.6 °F /  11.4 °C 29.82in /  1009.7hPa Calm     80% 0.00in /  0mm
00:09 58.7 °F /  14.8 °C 52.5 °F /  11.4 °C 29.82in /  1009.7hPa Calm   2.0mph /  3.2km/h 80% 0.00in /  0mm
00:14 58.5 °F /  14.7 °C 52.4 °F /  11.3 °C 29.82in /  1009.7hPa Calm   2.0mph /  3.2km/h 80% 0.00in /  0mm
00:24 58.3 °F /  14.6 °C 52.5 °F /  11.4 °C 29.82in /  1009.7hPa Calm     81% 0.00in /  0mm
00:29 58.1 °F /  14.5 °C 52.3 °F /  11.3 °C 29.82in /  1009.7hPa Calm     81% 0.00in /  0mm
00:34 57.8 °F /  14.3 °C 52.0 °F /  11.1 °C 29.82in /  1009.7hPa Calm     81% 0.00in /  0mm
00:39 57.7 °F /  14.3 °C 52.2 °F /  11.2 °C 29.82in /  1009.7hPa Calm     82% 0.00in /  0mm
00:44 57.4 °F /  14.1 °C 51.6 °F /  10.9 °C 29.82in /  1009.7hPa Calm     81% 0.00in /  0mm
00:49 57.2 °F /  14 °C 51.8 °F /  11 °C 29.82in /  1009.7hPa Calm     82% 0.00in /  0mm
00:54 57.0 °F /  13.9 °C 51.6 °F /  10.9 °C 29.81in /  1009.4hPa Calm     82% 0.00in /  0mm
00:59 56.9 °F /  13.8 °C 51.8 °F /  11 °C 29.81in /  1009.4hPa Calm     83% 0.00in /  0mm
01:04 56.9 °F /  13.8 °C 51.8 °F /  11 °C 29.81in /  1009.4hPa Calm     83% 0.00in /  0mm
01:09 56.9 °F /  13.8 °C 51.5 °F /  10.8 °C 29.81in /  1009.4hPa Calm     82% 0.00in /  0mm
01:14 56.7 °F /  13.7 °C 51.3 °F /  10.7 °C 29.80in /  1009hPa Calm     82% 0.00in /  0mm
01:19 56.5 °F /  13.6 °C 51.4 °F /  10.8 °C 29.80in /  1009hPa Calm     83% 0.00in /  0mm
01:24 56.2 °F /  13.4 °C 51.1 °F /  10.6 °C 29.80in /  1009hPa Calm     83% 0.00in /  0mm
01:29 56.1 °F /  13.4 °C 51.0 °F /  10.6 °C 29.80in /  1009hPa Calm     83% 0.00in /  0mm
01:34 56.4 °F /  13.6 °C 51.3 °F /  10.7 °C 29.80in /  1009hPa Calm     83% 0.00in /  0mm
01:39 56.5 °F /  13.6 °C 51.1 °F /  10.6 °C 29.80in /  1009hPa Calm   3.0mph /  4.8km/h 82% 0.00in /  0mm
01:44 56.5 °F /  13.6 °C 51.1 °F /  10.6 °C 29.80in /  1009hPa Calm   3.0mph /  4.8km/h 82% 0.00in /  0mm
01:49 56.3 °F /  13.5 °C 50.9 °F /  10.5 °C 29.80in /  1009hPa Calm     82% 0.00in /  0mm
01:54 56.2 °F /  13.4 °C 50.8 °F /  10.4 °C 29.80in /  1009hPa Calm     82% 0.00in /  0mm
01:59 55.9 °F /  13.3 °C 50.5 °F /  10.3 °C 29.80in /  1009hPa Calm     82% 0.00in /  0mm
02:04 55.7 °F /  13.2 °C 50.3 °F /  10.2 °C 29.80in /  1009hPa Calm     82% 0.00in /  0mm
02:09 55.7 °F /  13.2 °C 50.6 °F /  10.3 °C 29.80in /  1009hPa Calm     83% 0.00in /  0mm
02:14 55.6 °F /  13.1 °C 50.5 °F /  10.3 °C 29.80in /  1009hPa Calm     83% 0.00in /  0mm
02:19 55.6 °F /  13.1 °C 50.5 °F /  10.3 °C 29.80in /  1009hPa Calm     83% 0.00in /  0mm
02:24 55.4 °F /  13 °C 50.3 °F /  10.2 °C 29.80in /  1009hPa Calm     83% 0.00in /  0mm
02:34 55.0 °F /  12.8 °C 50.3 °F /  10.2 °C 29.80in /  1009hPa Calm     84% 0.00in /  0mm
02:39 55.0 °F /  12.8 °C 50.3 °F /  10.2 °C 29.79in /  1008.7hPa Calm     84% 0.00in /  0mm
02:44 54.9 °F /  12.7 °C 49.8 °F /  9.9 °C 29.79in /  1008.7hPa Calm     83% 0.00in /  0mm
02:49 54.9 °F /  12.7 °C 49.8 °F /  9.9 °C 29.80in /  1009hPa Calm     83% 0.00in /  0mm
02:54 55.1 °F /  12.8 °C 50.4 °F /  10.2 °C 29.80in /  1009hPa Calm     84% 0.00in /  0mm
02:59 55.3 °F /  12.9 °C 50.2 °F /  10.1 °C 29.79in /  1008.7hPa Calm     83% 0.00in /  0mm
03:04 55.1 °F /  12.8 °C 50.0 °F /  10 °C 29.79in /  1008.7hPa Calm     83% 0.00in /  0mm
03:09 55.2 °F /  12.9 °C 50.1 °F /  10.1 °C 29.79in /  1008.7hPa Calm     83% 0.00in /  0mm
03:14 55.1 °F /  12.8 °C 50.4 °F /  10.2 °C 29.79in /  1008.7hPa Calm     84% 0.00in /  0mm
03:19 55.1 °F /  12.8 °C 50.4 °F /  10.2 °C 29.80in /  1009hPa Calm     84% 0.00in /  0mm
03:24 55.0 °F /  12.8 °C 50.3 °F /  10.2 °C 29.79in /  1008.7hPa Calm     84% 0.00in /  0mm
03:29 55.1 °F /  12.8 °C 50.4 °F /  10.2 °C 29.79in /  1008.7hPa Calm     84% 0.00in /  0mm
03:39 54.9 °F /  12.7 °C 50.2 °F /  10.1 °C 29.79in /  1008.7hPa Calm     84% 0.00in /  0mm
03:44 54.6 °F /  12.6 °C 49.9 °F /  9.9 °C 29.79in /  1008.7hPa Calm     84% 0.00in /  0mm
03:49 54.5 °F /  12.5 °C 49.8 °F /  9.9 °C 29.79in /  1008.7hPa Calm     84% 0.00in /  0mm
03:54 54.6 °F /  12.6 °C 50.2 °F /  10.1 °C 29.79in /  1008.7hPa Calm     85% 0.00in /  0mm
03:59 54.5 °F /  12.5 °C 50.1 °F /  10.1 °C 29.79in /  1008.7hPa Calm     85% 0.00in /  0mm
04:04 54.4 °F /  12.4 °C 49.7 °F /  9.8 °C 29.79in /  1008.7hPa Calm     84% 0.00in /  0mm
04:09 54.4 °F /  12.4 °C 50.0 °F /  10 °C 29.79in /  1008.7hPa Calm     85% 0.00in /  0mm
04:14 54.2 °F /  12.3 °C 49.8 °F /  9.9 °C 29.79in /  1008.7hPa Calm     85% 0.00in /  0mm
04:19 53.9 °F /  12.2 °C 49.5 °F /  9.7 °C 29.79in /  1008.7hPa Calm     85% 0.00in /  0mm
04:24 53.8 °F /  12.1 °C 49.4 °F /  9.7 °C 29.79in /  1008.7hPa Calm     85% 0.00in /  0mm
04:29 53.5 °F /  11.9 °C 49.1 °F /  9.5 °C 29.79in /  1008.7hPa Calm     85% 0.00in /  0mm
04:34 53.4 °F /  11.9 °C 49.0 °F /  9.4 °C 29.79in /  1008.7hPa Calm     85% 0.00in /  0mm
04:39 53.1 °F /  11.7 °C 48.7 °F /  9.3 °C 29.79in /  1008.7hPa Calm     85% 0.00in /  0mm
04:44 52.8 °F /  11.6 °C 48.7 °F /  9.3 °C 29.79in /  1008.7hPa Calm     86% 0.00in /  0mm
04:49 52.7 °F /  11.5 °C 48.6 °F /  9.2 °C 29.79in /  1008.7hPa Calm     86% 0.00in /  0mm
04:54 52.5 °F /  11.4 °C 48.7 °F /  9.3 °C 29.79in /  1008.7hPa Calm     87% 0.00in /  0mm
04:59 52.4 °F /  11.3 °C 48.6 °F /  9.2 °C 29.79in /  1008.7hPa Calm     87% 0.00in /  0mm
05:04 52.4 °F /  11.3 °C 48.6 °F /  9.2 °C 29.79in /  1008.7hPa Calm     87% 0.00in /  0mm
05:09 52.3 °F /  11.3 °C 48.5 °F /  9.2 °C 29.78in /  1008.4hPa Calm     87% 0.00in /  0mm
05:14 52.3 °F /  11.3 °C 48.5 °F /  9.2 °C 29.79in /  1008.7hPa Calm     87% 0.00in /  0mm
05:19 52.2 °F /  11.2 °C 48.4 °F /  9.1 °C 29.78in /  1008.4hPa Calm     87% 0.00in /  0mm
05:24 52.2 °F /  11.2 °C 48.4 °F /  9.1 °C 29.78in /  1008.4hPa Calm     87% 0.00in /  0mm
05:29 52.2 °F /  11.2 °C 48.4 °F /  9.1 °C 29.78in /  1008.4hPa Calm     87% 0.00in /  0mm
05:34 52.1 °F /  11.2 °C 48.3 °F /  9.1 °C 29.78in /  1008.4hPa Calm     87% 0.00in /  0mm
05:39 52.0 °F /  11.1 °C 48.3 °F /  9.1 °C 29.79in /  1008.7hPa Calm     87% 0.00in /  0mm
05:44 52.1 °F /  11.2 °C 48.3 °F /  9.1 °C 29.79in /  1008.7hPa Calm     87% 0.00in /  0mm
05:49 52.2 °F /  11.2 °C 48.4 °F /  9.1 °C 29.79in /  1008.7hPa Calm     87% 0.00in /  0mm
05:54 52.2 °F /  11.2 °C 48.4 °F /  9.1 °C 29.79in /  1008.7hPa Calm     87% 0.00in /  0mm
05:59 52.3 °F /  11.3 °C 48.5 °F /  9.2 °C 29.79in /  1008.7hPa Calm     87% 0.00in /  0mm
06:04 52.4 °F /  11.3 °C 48.6 °F /  9.2 °C 29.79in /  1008.7hPa Calm     87% 0.00in /  0mm
06:09 52.4 °F /  11.3 °C 48.6 °F /  9.2 °C 29.80in /  1009hPa Calm     87% 0.00in /  0mm
06:14 52.8 °F /  11.6 °C 49.0 °F /  9.4 °C 29.80in /  1009hPa Calm     87% 0.00in /  0mm
06:19 53.5 °F /  11.9 °C 49.7 °F /  9.8 °C 29.80in /  1009hPa SSW 1.0mph /  1.6km/h 3.0mph /  4.8km/h 87% 0.00in /  0mm
06:24 54.2 °F /  12.3 °C 49.8 °F /  9.9 °C 29.80in /  1009hPa Calm   4.0mph /  6.4km/h 85% 0.00in /  0mm
06:29 54.6 °F /  12.6 °C 50.2 °F /  10.1 °C 29.80in /  1009hPa Calm     85% 0.00in /  0mm
06:34 55.1 °F /  12.8 °C 50.4 °F /  10.2 °C 29.80in /  1009hPa SSW 2.0mph /  3.2km/h 3.0mph /  4.8km/h 84% 0.00in /  0mm
06:39 55.6 °F /  13.1 °C 50.5 °F /  10.3 °C 29.80in /  1009hPa SSW 1.0mph /  1.6km/h 3.0mph /  4.8km/h 83% 0.00in /  0mm
06:44 56.2 °F /  13.4 °C 50.8 °F /  10.4 °C 29.80in /  1009hPa SW 1.0mph /  1.6km/h 4.0mph /  6.4km/h 82% 0.00in /  0mm
06:49 56.8 °F /  13.8 °C 51.4 °F /  10.8 °C 29.80in /  1009hPa SW 2.0mph /  3.2km/h 4.0mph /  6.4km/h 82% 0.00in /  0mm
06:54 57.3 °F /  14.1 °C 51.5 °F /  10.8 °C 29.80in /  1009hPa SW 2.0mph /  3.2km/h 4.0mph /  6.4km/h 81% 0.00in /  0mm
06:59 57.9 °F /  14.4 °C 51.8 °F /  11 °C 29.80in /  1009hPa SW 2.0mph /  3.2km/h 5.0mph /  8km/h 80% 0.00in /  0mm
07:04 58.6 °F /  14.8 °C 52.4 °F /  11.3 °C 29.80in /  1009hPa WSW 2.0mph /  3.2km/h 4.0mph /  6.4km/h 80% 0.00in /  0mm
07:09 59.2 °F /  15.1 °C 52.7 °F /  11.5 °C 29.80in /  1009hPa Calm   4.0mph /  6.4km/h 79% 0.00in /  0mm
07:14 59.9 °F /  15.5 °C 53.0 °F /  11.7 °C 29.80in /  1009hPa SW 2.0mph /  3.2km/h 5.0mph /  8km/h 78% 0.00in /  0mm
07:19 60.6 °F /  15.9 °C 53.0 °F /  11.7 °C 29.80in /  1009hPa WSW 4.0mph /  6.4km/h 7.0mph /  11.3km/h 76% 0.00in /  0mm
07:24 61.1 °F /  16.2 °C 53.5 °F /  11.9 °C 29.80in /  1009hPa SW 1.0mph /  1.6km/h 6.0mph /  9.7km/h 76% 0.00in /  0mm
07:29 61.3 °F /  16.3 °C 53.3 °F /  11.8 °C 29.81in /  1009.4hPa WSW 6.0mph /  9.7km/h 6.0mph /  9.7km/h 75% 0.00in /  0mm
07:34 61.2 °F /  16.2 °C 52.8 °F /  11.6 °C 29.81in /  1009.4hPa WSW 4.0mph /  6.4km/h 8.0mph /  12.9km/h 74% 0.00in /  0mm
07:39 61.4 °F /  16.3 °C 53.4 °F /  11.9 °C 29.81in /  1009.4hPa SW 4.0mph /  6.4km/h 8.0mph /  12.9km/h 75% 0.00in /  0mm
07:44 61.5 °F /  16.4 °C 53.5 °F /  11.9 °C 29.81in /  1009.4hPa WSW 4.0mph /  6.4km/h 7.0mph /  11.3km/h 75% 0.00in /  0mm
07:49 61.7 °F /  16.5 °C 53.3 °F /  11.8 °C 29.81in /  1009.4hPa WSW 4.0mph /  6.4km/h 8.0mph /  12.9km/h 74% 0.00in /  0mm
07:54 61.7 °F /  16.5 °C 53.3 °F /  11.8 °C 29.81in /  1009.4hPa WSW 4.0mph /  6.4km/h 10.0mph /  16.1km/h 74% 0.00in /  0mm
07:59 62.0 °F /  16.7 °C 54.0 °F /  12.2 °C 29.81in /  1009.4hPa SW 4.0mph /  6.4km/h 10.0mph /  16.1km/h 75% 0.00in /  0mm
08:04 62.2 °F /  16.8 °C 53.4 °F /  11.9 °C 29.81in /  1009.4hPa WSW 3.0mph /  4.8km/h 6.0mph /  9.7km/h 73% 0.00in /  0mm
08:09 62.5 °F /  16.9 °C 53.3 °F /  11.8 °C 29.81in /  1009.4hPa West 3.0mph /  4.8km/h 7.0mph /  11.3km/h 72% 0.00in /  0mm
08:14 62.1 °F /  16.7 °C 53.3 °F /  11.8 °C 29.81in /  1009.4hPa SW 6.0mph /  9.7km/h 7.0mph /  11.3km/h 73% 0.00in /  0mm
08:19 62.0 °F /  16.7 °C 53.2 °F /  11.8 °C 29.81in /  1009.4hPa WSW 3.0mph /  4.8km/h 6.0mph /  9.7km/h 73% 0.00in /  0mm
08:24 61.8 °F /  16.6 °C 53.1 °F /  11.7 °C 29.81in /  1009.4hPa SW 3.0mph /  4.8km/h 10.0mph /  16.1km/h 73% 0.00in /  0mm
08:29 62.5 °F /  16.9 °C 53.3 °F /  11.8 °C 29.81in /  1009.4hPa SSW 4.0mph /  6.4km/h 7.0mph /  11.3km/h 72% 0.00in /  0mm
08:34 63.0 °F /  17.2 °C 53.4 °F /  11.9 °C 29.81in /  1009.4hPa SW 4.0mph /  6.4km/h 8.0mph /  12.9km/h 71% 0.00in /  0mm
08:39 63.1 °F /  17.3 °C 53.2 °F /  11.8 °C 29.81in /  1009.4hPa SW 4.0mph /  6.4km/h 8.0mph /  12.9km/h 70% 0.00in /  0mm
08:44 63.7 °F /  17.6 °C 52.9 °F /  11.6 °C 29.81in /  1009.4hPa SW 4.0mph /  6.4km/h 9.0mph /  14.5km/h 68% 0.00in /  0mm
08:49 63.7 °F /  17.6 °C 52.5 °F /  11.4 °C 29.81in /  1009.4hPa SW 4.0mph /  6.4km/h 10.0mph /  16.1km/h 67% 0.00in /  0mm
08:54 64.1 °F /  17.8 °C 52.5 °F /  11.4 °C 29.82in /  1009.7hPa SW 6.0mph /  9.7km/h 11.0mph /  17.7km/h 66% 0.00in /  0mm
08:59 64.2 °F /  17.9 °C 52.6 °F /  11.4 °C 29.82in /  1009.7hPa WSW 4.0mph /  6.4km/h 12.0mph /  19.3km/h 66% 0.00in /  0mm
09:04 63.9 °F /  17.7 °C 51.9 °F /  11.1 °C 29.82in /  1009.7hPa WSW 6.0mph /  9.7km/h 12.0mph /  19.3km/h 65% 0.00in /  0mm
09:09 64.3 °F /  17.9 °C 52.7 °F /  11.5 °C 29.82in /  1009.7hPa WSW 6.0mph /  9.7km/h 12.0mph /  19.3km/h 66% 0.00in /  0mm
09:14 65.1 °F /  18.4 °C 52.6 °F /  11.4 °C 29.82in /  1009.7hPa West 2.0mph /  3.2km/h 9.0mph /  14.5km/h 64% 0.00in /  0mm
09:19 64.8 °F /  18.2 °C 52.3 °F /  11.3 °C 29.82in /  1009.7hPa SW 7.0mph /  11.3km/h 10.0mph /  16.1km/h 64% 0.00in /  0mm
09:24 64.2 °F /  17.9 °C 51.8 °F /  11 °C 29.82in /  1009.7hPa SW 5.0mph /  8km/h 11.0mph /  17.7km/h 64% 0.00in /  0mm
09:29 64.7 °F /  18.2 °C 52.2 °F /  11.2 °C 29.82in /  1009.7hPa WSW 8.0mph /  12.9km/h 10.0mph /  16.1km/h 64% 0.00in /  0mm
09:34 64.7 °F /  18.2 °C 51.8 °F /  11 °C 29.82in /  1009.7hPa SW 6.0mph /  9.7km/h 11.0mph /  17.7km/h 63% 0.00in /  0mm
09:39 64.7 °F /  18.2 °C 51.8 °F /  11 °C 29.82in /  1009.7hPa WSW 6.0mph /  9.7km/h 11.0mph /  17.7km/h 63% 0.00in /  0mm
09:44 65.4 °F /  18.6 °C 52.0 °F /  11.1 °C 29.82in /  1009.7hPa WSW 6.0mph /  9.7km/h 11.0mph /  17.7km/h 62% 0.00in /  0mm
09:49 65.8 °F /  18.8 °C 51.5 °F /  10.8 °C 29.82in /  1009.7hPa WSW 6.0mph /  9.7km/h 12.0mph /  19.3km/h 60% 0.00in /  0mm
09:54 65.8 °F /  18.8 °C 51.5 °F /  10.8 °C 29.82in /  1009.7hPa West 6.0mph /  9.7km/h 11.0mph /  17.7km/h 60% 0.00in /  0mm
09:59 66.7 °F /  19.3 °C 51.9 °F /  11.1 °C 29.82in /  1009.7hPa SSW 7.0mph /  11.3km/h 10.0mph /  16.1km/h 59% 0.00in /  0mm
10:04 66.7 °F /  19.3 °C 50.5 °F /  10.3 °C 29.82in /  1009.7hPa WSW 7.0mph /  11.3km/h 13.0mph /  20.9km/h 56% 0.00in /  0mm
10:09 66.7 °F /  19.3 °C 51.0 °F /  10.6 °C 29.82in /  1009.7hPa SW 7.0mph /  11.3km/h 13.0mph /  20.9km/h 57% 0.00in /  0mm
10:14 66.8 °F /  19.3 °C 51.1 °F /  10.6 °C 29.82in /  1009.7hPa SW 6.0mph /  9.7km/h 18.0mph /  29km/h 57% 0.00in /  0mm
10:19 67.1 °F /  19.5 °C 50.9 °F /  10.5 °C 29.82in /  1009.7hPa WSW 6.0mph /  9.7km/h 18.0mph /  29km/h 56% 0.00in /  0mm
10:24 67.3 °F /  19.6 °C 51.5 °F /  10.8 °C 29.82in /  1009.7hPa WSW 3.0mph /  4.8km/h 11.0mph /  17.7km/h 57% 0.00in /  0mm
10:29 67.7 °F /  19.8 °C 51.4 °F /  10.8 °C 29.82in /  1009.7hPa WSW 6.0mph /  9.7km/h 12.0mph /  19.3km/h 56% 0.00in /  0mm
10:34 67.8 °F /  19.9 °C 51.5 °F /  10.8 °C 29.82in /  1009.7hPa WSW 3.0mph /  4.8km/h 14.0mph /  22.5km/h 56% 0.00in /  0mm
10:39 67.7 °F /  19.8 °C 51.4 °F /  10.8 °C 29.82in /  1009.7hPa WNW 5.0mph /  8km/h 13.0mph /  20.9km/h 56% 0.00in /  0mm
10:44 67.7 °F /  19.8 °C 51.9 °F /  11.1 °C 29.82in /  1009.7hPa WSW 10.0mph /  16.1km/h 14.0mph /  22.5km/h 57% 0.00in /  0mm
10:49 68.2 °F /  20.1 °C 52.9 °F /  11.6 °C 29.82in /  1009.7hPa SW 10.0mph /  16.1km/h 12.0mph /  19.3km/h 58% 0.00in /  0mm
10:54 68.0 °F /  20 °C 53.1 °F /  11.7 °C 29.81in /  1009.4hPa SSW 9.0mph /  14.5km/h 15.0mph /  24.1km/h 59% 0.00in /  0mm
10:59 68.4 °F /  20.2 °C 53.0 °F /  11.7 °C 29.81in /  1009.4hPa South 9.0mph /  14.5km/h 12.0mph /  19.3km/h 58% 0.00in /  0mm
11:04 68.4 °F /  20.2 °C 53.0 °F /  11.7 °C 29.82in /  1009.7hPa WSW 7.0mph /  11.3km/h 15.0mph /  24.1km/h 58% 0.00in /  0mm
11:09 68.3 °F /  20.2 °C 52.9 °F /  11.6 °C 29.81in /  1009.4hPa WSW 9.0mph /  14.5km/h 20.0mph /  32.2km/h 58% 0.00in /  0mm
11:14 68.6 °F /  20.3 °C 53.2 °F /  11.8 °C 29.81in /  1009.4hPa WSW 9.0mph /  14.5km/h 20.0mph /  32.2km/h 58% 0.00in /  0mm
11:19 69.0 °F /  20.6 °C 53.1 °F /  11.7 °C 29.81in /  1009.4hPa SW 8.0mph /  12.9km/h 18.0mph /  29km/h 57% 0.00in /  0mm
11:24 69.2 °F /  20.7 °C 53.3 °F /  11.8 °C 29.81in /  1009.4hPa SW 8.0mph /  12.9km/h 17.0mph /  27.4km/h 57% 0.00in /  0mm
11:29 69.0 °F /  20.6 °C 53.6 °F /  12 °C 29.81in /  1009.4hPa SW 8.0mph /  12.9km/h 18.0mph /  29km/h 58% 0.00in /  0mm
11:34 69.1 °F /  20.6 °C 52.2 °F /  11.2 °C 29.82in /  1009.7hPa SW 9.0mph /  14.5km/h 17.0mph /  27.4km/h 55% 0.00in /  0mm
11:39 69.7 °F /  20.9 °C 53.8 °F /  12.1 °C 29.81in /  1009.4hPa SSW 9.0mph /  14.5km/h 17.0mph /  27.4km/h 57% 0.00in /  0mm
11:44 69.4 °F /  20.8 °C 53.5 °F /  11.9 °C 29.82in /  1009.7hPa SW 4.0mph /  6.4km/h 17.0mph /  27.4km/h 57% 0.00in /  0mm
11:49 69.2 °F /  20.7 °C 53.3 °F /  11.8 °C 29.81in /  1009.4hPa SW 9.0mph /  14.5km/h 14.0mph /  22.5km/h 57% 0.00in /  0mm
11:54 68.7 °F /  20.4 °C 52.8 °F /  11.6 °C 29.81in /  1009.4hPa West 7.0mph /  11.3km/h 17.0mph /  27.4km/h 57% 0.00in /  0mm
11:59 68.7 °F /  20.4 °C 53.3 °F /  11.8 °C 29.81in /  1009.4hPa WSW 12.0mph /  19.3km/h 16.0mph /  25.7km/h 58% 0.00in /  0mm
12:04 69.0 °F /  20.6 °C 53.1 °F /  11.7 °C 29.82in /  1009.7hPa WSW 9.0mph /  14.5km/h 16.0mph /  25.7km/h 57% 0.00in /  0mm
12:09 68.6 °F /  20.3 °C 52.8 °F /  11.6 °C 29.81in /  1009.4hPa WSW 9.0mph /  14.5km/h 18.0mph /  29km/h 57% 0.00in /  0mm
12:14 68.8 °F /  20.4 °C 53.4 °F /  11.9 °C 29.81in /  1009.4hPa WSW 9.0mph /  14.5km/h 18.0mph /  29km/h 58% 0.00in /  0mm
12:19 69.8 °F /  21 °C 53.9 °F /  12.2 °C 29.81in /  1009.4hPa WSW 7.0mph /  11.3km/h 15.0mph /  24.1km/h 57% 0.00in /  0mm
12:24 69.3 °F /  20.7 °C 54.4 °F /  12.4 °C 29.81in /  1009.4hPa WSW 8.0mph /  12.9km/h 16.0mph /  25.7km/h 59% 0.00in /  0mm
12:29 69.6 °F /  20.9 °C 54.2 °F /  12.3 °C 29.81in /  1009.4hPa WSW 9.0mph /  14.5km/h 16.0mph /  25.7km/h 58% 0.00in /  0mm
12:34 70.4 °F /  21.3 °C 54.9 °F /  12.7 °C 29.82in /  1009.7hPa WNW 7.0mph /  11.3km/h 14.0mph /  22.5km/h 58% 0.00in /  0mm
12:39 70.0 °F /  21.1 °C 54.5 °F /  12.5 °C 29.82in /  1009.7hPa WSW 8.0mph /  12.9km/h 18.0mph /  29km/h 58% 0.00in /  0mm
12:44 69.5 °F /  20.8 °C 55.0 °F /  12.8 °C 29.82in /  1009.7hPa WSW 4.0mph /  6.4km/h 18.0mph /  29km/h 60% 0.00in /  0mm
12:49 69.5 °F /  20.8 °C 55.0 °F /  12.8 °C 29.81in /  1009.4hPa South 9.0mph /  14.5km/h 15.0mph /  24.1km/h 60% 0.00in /  0mm
12:54 69.3 °F /  20.7 °C 54.8 °F /  12.7 °C 29.81in /  1009.4hPa WSW 12.0mph /  19.3km/h 18.0mph /  29km/h 60% 0.00in /  0mm
12:59 69.5 °F /  20.8 °C 55.0 °F /  12.8 °C 29.81in /  1009.4hPa SW 7.0mph /  11.3km/h 19.0mph /  30.6km/h 60% 0.00in /  0mm
13:04 70.2 °F /  21.2 °C 55.2 °F /  12.9 °C 29.81in /  1009.4hPa West 14.0mph /  22.5km/h 17.0mph /  27.4km/h 59% 0.00in /  0mm
13:09 70.0 °F /  21.1 °C 54.5 °F /  12.5 °C 29.81in /  1009.4hPa WSW 8.0mph /  12.9km/h 17.0mph /  27.4km/h 58% 0.00in /  0mm
13:14 70.4 °F /  21.3 °C 55.4 °F /  13 °C 29.81in /  1009.4hPa WSW 8.0mph /  12.9km/h 16.0mph /  25.7km/h 59% 0.00in /  0mm
13:19 69.9 °F /  21.1 °C 54.0 °F /  12.2 °C 29.81in /  1009.4hPa WSW 8.0mph /  12.9km/h 17.0mph /  27.4km/h 57% 0.00in /  0mm
13:24 70.7 °F /  21.5 °C 55.2 °F /  12.9 °C 29.81in /  1009.4hPa WSW 9.0mph /  14.5km/h 17.0mph /  27.4km/h 58% 0.00in /  0mm
13:29 70.5 °F /  21.4 °C 55.5 °F /  13.1 °C 29.81in /  1009.4hPa SW 7.0mph /  11.3km/h 16.0mph /  25.7km/h 59% 0.00in /  0mm
13:34 70.4 °F /  21.3 °C 55.8 °F /  13.2 °C 29.81in /  1009.4hPa WSW 8.0mph /  12.9km/h 16.0mph /  25.7km/h 60% 0.00in /  0mm
13:39 70.7 °F /  21.5 °C 56.6 °F /  13.7 °C 29.81in /  1009.4hPa West 6.0mph /  9.7km/h 15.0mph /  24.1km/h 61% 0.00in /  0mm
13:44 70.8 °F /  21.6 °C 57.1 °F /  13.9 °C 29.81in /  1009.4hPa WSW 7.0mph /  11.3km/h 15.0mph /  24.1km/h 62% 0.00in /  0mm
13:49 70.5 °F /  21.4 °C 56.9 °F /  13.8 °C 29.81in /  1009.4hPa WSW 8.0mph /  12.9km/h 15.0mph /  24.1km/h 62% 0.00in /  0mm
13:54 70.0 °F /  21.1 °C 56.4 °F /  13.6 °C 29.81in /  1009.4hPa SW 6.0mph /  9.7km/h 17.0mph /  27.4km/h 62% 0.00in /  0mm
13:59 70.6 °F /  21.4 °C 56.9 °F /  13.8 °C 29.81in /  1009.4hPa WSW 8.0mph /  12.9km/h 16.0mph /  25.7km/h 62% 0.00in /  0mm
14:04 70.0 °F /  21.1 °C 55.5 °F /  13.1 °C 29.81in /  1009.4hPa South 6.0mph /  9.7km/h 17.0mph /  27.4km/h 60% 0.00in /  0mm
14:09 69.9 °F /  21.1 °C 55.8 °F /  13.2 °C 29.81in /  1009.4hPa SW 9.0mph /  14.5km/h 17.0mph /  27.4km/h 61% 0.00in /  0mm
14:14 69.8 °F /  21 °C 55.3 °F /  12.9 °C 29.81in /  1009.4hPa SW 9.0mph /  14.5km/h 18.0mph /  29km/h 60% 0.00in /  0mm
14:19 70.8 °F /  21.6 °C 57.1 °F /  13.9 °C 29.81in /  1009.4hPa WSW 6.0mph /  9.7km/h 14.0mph /  22.5km/h 62% 0.00in /  0mm
14:24 71.2 °F /  21.8 °C 56.1 °F /  13.4 °C 29.80in /  1009hPa SW 9.0mph /  14.5km/h 13.0mph /  20.9km/h 59% 0.00in /  0mm
14:29 70.5 °F /  21.4 °C 55.5 °F /  13.1 °C 29.80in /  1009hPa WNW 10.0mph /  16.1km/h 17.0mph /  27.4km/h 59% 0.00in /  0mm
14:34 70.8 °F /  21.6 °C 55.8 °F /  13.2 °C 29.80in /  1009hPa West 13.0mph /  20.9km/h 15.0mph /  24.1km/h 59% 0.00in /  0mm
14:39 70.8 °F /  21.6 °C 56.7 °F /  13.7 °C 29.80in /  1009hPa WSW 9.0mph /  14.5km/h 15.0mph /  24.1km/h 61% 0.00in /  0mm
14:44 71.0 °F /  21.7 °C 56.9 °F /  13.8 °C 29.80in /  1009hPa WSW 8.0mph /  12.9km/h 15.0mph /  24.1km/h 61% 0.00in /  0mm
14:49 70.6 °F /  21.4 °C 56.0 °F /  13.3 °C 29.80in /  1009hPa WSW 8.0mph /  12.9km/h 19.0mph /  30.6km/h 60% 0.00in /  0mm
14:54 70.6 °F /  21.4 °C 56.5 °F /  13.6 °C 29.80in /  1009hPa SW 8.0mph /  12.9km/h 19.0mph /  30.6km/h 61% 0.00in /  0mm
14:59 71.5 °F /  21.9 °C 57.3 °F /  14.1 °C 29.80in /  1009hPa WSW 7.0mph /  11.3km/h 16.0mph /  25.7km/h 61% 0.00in /  0mm
15:09 71.3 °F /  21.8 °C 56.7 °F /  13.7 °C 29.80in /  1009hPa WSW 5.0mph /  8km/h 19.0mph /  30.6km/h 60% 0.00in /  0mm
15:14 70.8 °F /  21.6 °C 56.2 °F /  13.4 °C 29.80in /  1009hPa WSW 3.0mph /  4.8km/h 17.0mph /  27.4km/h 60% 0.00in /  0mm
15:19 70.6 °F /  21.4 °C 56.0 °F /  13.3 °C 29.80in /  1009hPa SW 9.0mph /  14.5km/h 19.0mph /  30.6km/h 60% 0.00in /  0mm
15:24 70.5 °F /  21.4 °C 56.4 °F /  13.6 °C 29.80in /  1009hPa West 11.0mph /  17.7km/h 16.0mph /  25.7km/h 61% 0.00in /  0mm
15:29 70.7 °F /  21.5 °C 56.1 °F /  13.4 °C 29.80in /  1009hPa West 4.0mph /  6.4km/h 16.0mph /  25.7km/h 60% 0.00in /  0mm
15:34 70.4 °F /  21.3 °C 56.3 °F /  13.5 °C 29.80in /  1009hPa SSW 7.0mph /  11.3km/h 19.0mph /  30.6km/h 61% 0.00in /  0mm
15:39 70.1 °F /  21.2 °C 56.0 °F /  13.3 °C 29.80in /  1009hPa WSW 10.0mph /  16.1km/h 19.0mph /  30.6km/h 61% 0.00in /  0mm
15:44 70.0 °F /  21.1 °C 55.9 °F /  13.3 °C 29.81in /  1009.4hPa WSW 10.0mph /  16.1km/h 20.0mph /  32.2km/h 61% 0.00in /  0mm
15:49 70.4 °F /  21.3 °C 56.3 °F /  13.5 °C 29.80in /  1009hPa SW 8.0mph /  12.9km/h 20.0mph /  32.2km/h 61% 0.00in /  0mm
15:54 71.0 °F /  21.7 °C 56.4 °F /  13.6 °C 29.80in /  1009hPa SW 7.0mph /  11.3km/h 16.0mph /  25.7km/h 60% 0.00in /  0mm
15:59 71.2 °F /  21.8 °C 56.6 °F /  13.7 °C 29.80in /  1009hPa SW 7.0mph /  11.3km/h 13.0mph /  20.9km/h 60% 0.00in /  0mm
16:04 71.2 °F /  21.8 °C 56.1 °F /  13.4 °C 29.80in /  1009hPa West 3.0mph /  4.8km/h 12.0mph /  19.3km/h 59% 0.00in /  0mm
16:09 71.1 °F /  21.7 °C 56.0 °F /  13.3 °C 29.80in /  1009hPa WSW 7.0mph /  11.3km/h 16.0mph /  25.7km/h 59% 0.00in /  0mm
16:14 70.3 °F /  21.3 °C 55.8 °F /  13.2 °C 29.80in /  1009hPa WSW 9.0mph /  14.5km/h 20.0mph /  32.2km/h 60% 0.00in /  0mm
16:19 70.1 °F /  21.2 °C 56.5 °F /  13.6 °C 29.80in /  1009hPa WSW 8.0mph /  12.9km/h 14.0mph /  22.5km/h 62% 0.00in /  0mm
16:24 70.6 °F /  21.4 °C 56.5 °F /  13.6 °C 29.80in /  1009hPa WSW 7.0mph /  11.3km/h 13.0mph /  20.9km/h 61% 0.00in /  0mm
16:29 70.4 °F /  21.3 °C 56.3 °F /  13.5 °C 29.80in /  1009hPa WSW 10.0mph /  16.1km/h 18.0mph /  29km/h 61% 0.00in /  0mm
16:34 69.9 °F /  21.1 °C 55.8 °F /  13.2 °C 29.80in /  1009hPa WSW 9.0mph /  14.5km/h 18.0mph /  29km/h 61% 0.00in /  0mm
16:39 69.8 °F /  21 °C 56.6 °F /  13.7 °C 29.80in /  1009hPa WSW 9.0mph /  14.5km/h 18.0mph /  29km/h 63% 0.00in /  0mm
16:44 69.6 °F /  20.9 °C 56.4 °F /  13.6 °C 29.80in /  1009hPa WSW 9.0mph /  14.5km/h 17.0mph /  27.4km/h 63% 0.00in /  0mm
16:49 69.3 °F /  20.7 °C 56.2 °F /  13.4 °C 29.81in /  1009.4hPa WSW 9.0mph /  14.5km/h 17.0mph /  27.4km/h 63% 0.00in /  0mm
16:54 69.4 °F /  20.8 °C 57.5 °F /  14.2 °C 29.81in /  1009.4hPa WSW 8.0mph /  12.9km/h 16.0mph /  25.7km/h 66% 0.00in /  0mm
16:59 70.2 °F /  21.2 °C 57.0 °F /  13.9 °C 29.80in /  1009hPa WSW 10.0mph /  16.1km/h 16.0mph /  25.7km/h 63% 0.00in /  0mm
17:04 69.4 °F /  20.8 °C 56.3 °F /  13.5 °C 29.80in /  1009hPa West 11.0mph /  17.7km/h 14.0mph /  22.5km/h 63% 0.00in /  0mm
17:09 69.3 °F /  20.7 °C 56.6 °F /  13.7 °C 29.80in /  1009hPa SW 8.0mph /  12.9km/h 16.0mph /  25.7km/h 64% 0.00in /  0mm
17:14 68.4 °F /  20.2 °C 55.7 °F /  13.2 °C 29.80in /  1009hPa WSW 8.0mph /  12.9km/h 18.0mph /  29km/h 64% 0.00in /  0mm
17:19 68.7 °F /  20.4 °C 56.5 °F /  13.6 °C 29.80in /  1009hPa SW 8.0mph /  12.9km/h 15.0mph /  24.1km/h 65% 0.00in /  0mm
17:24 69.1 °F /  20.6 °C 56.4 °F /  13.6 °C 29.80in /  1009hPa SW 10.0mph /  16.1km/h 17.0mph /  27.4km/h 64% 0.00in /  0mm
17:29 68.6 °F /  20.3 °C 56.4 °F /  13.6 °C 29.81in /  1009.4hPa WSW 9.0mph /  14.5km/h 19.0mph /  30.6km/h 65% 0.00in /  0mm
17:34 68.6 °F /  20.3 °C 56.4 °F /  13.6 °C 29.80in /  1009hPa SSE 6.0mph /  9.7km/h 14.0mph /  22.5km/h 65% 0.00in /  0mm
17:39 68.4 °F /  20.2 °C 55.7 °F /  13.2 °C 29.80in /  1009hPa SW 7.0mph /  11.3km/h 14.0mph /  22.5km/h 64% 0.00in /  0mm
17:44 67.5 °F /  19.7 °C 55.3 °F /  12.9 °C 29.81in /  1009.4hPa SW 7.0mph /  11.3km/h 13.0mph /  20.9km/h 65% 0.00in /  0mm
17:49 67.0 °F /  19.4 °C 55.7 °F /  13.2 °C 29.80in /  1009hPa WSW 7.0mph /  11.3km/h 14.0mph /  22.5km/h 67% 0.00in /  0mm
17:54 67.1 °F /  19.5 °C 56.2 °F /  13.4 °C 29.81in /  1009.4hPa WSW 7.0mph /  11.3km/h 15.0mph /  24.1km/h 68% 0.00in /  0mm
17:59 67.3 °F /  19.6 °C 56.8 °F /  13.8 °C 29.80in /  1009hPa WSW 6.0mph /  9.7km/h 15.0mph /  24.1km/h 69% 0.00in /  0mm
18:04 66.7 °F /  19.3 °C 56.2 °F /  13.4 °C 29.80in /  1009hPa WSW 7.0mph /  11.3km/h 15.0mph /  24.1km/h 69% 0.00in /  0mm
18:09 66.1 °F /  18.9 °C 56.4 °F /  13.6 °C 29.80in /  1009hPa SW 3.0mph /  4.8km/h 12.0mph /  19.3km/h 71% 0.00in /  0mm
18:14 66.0 °F /  18.9 °C 56.3 °F /  13.5 °C 29.80in /  1009hPa SW 5.0mph /  8km/h 12.0mph /  19.3km/h 71% 0.00in /  0mm
18:19 66.0 °F /  18.9 °C 56.3 °F /  13.5 °C 29.80in /  1009hPa SW 7.0mph /  11.3km/h 9.0mph /  14.5km/h 71% 0.00in /  0mm
18:24 66.1 °F /  18.9 °C 56.0 °F /  13.3 °C 29.80in /  1009hPa West 3.0mph /  4.8km/h 14.0mph /  22.5km/h 70% 0.00in /  0mm
18:29 66.0 °F /  18.9 °C 55.9 °F /  13.3 °C 29.80in /  1009hPa WSW 1.0mph /  1.6km/h 11.0mph /  17.7km/h 70% 0.00in /  0mm
18:34 66.1 °F /  18.9 °C 56.0 °F /  13.3 °C 29.80in /  1009hPa WSW 4.0mph /  6.4km/h 11.0mph /  17.7km/h 70% 0.00in /  0mm
18:39 66.4 °F /  19.1 °C 56.3 °F /  13.5 °C 29.81in /  1009.4hPa SW 8.0mph /  12.9km/h 14.0mph /  22.5km/h 70% 0.00in /  0mm
18:49 66.1 °F /  18.9 °C 56.0 °F /  13.3 °C 29.81in /  1009.4hPa WSW 6.0mph /  9.7km/h 14.0mph /  22.5km/h 70% 0.00in /  0mm
18:54 66.1 °F /  18.9 °C 55.6 °F /  13.1 °C 29.81in /  1009.4hPa WSW 6.0mph /  9.7km/h 12.0mph /  19.3km/h 69% 0.00in /  0mm
18:59 66.0 °F /  18.9 °C 55.5 °F /  13.1 °C 29.81in /  1009.4hPa SW 8.0mph /  12.9km/h 11.0mph /  17.7km/h 69% 0.00in /  0mm
19:04 65.8 °F /  18.8 °C 55.7 °F /  13.2 °C 29.81in /  1009.4hPa WSW 4.0mph /  6.4km/h 13.0mph /  20.9km/h 70% 0.00in /  0mm
19:09 65.6 °F /  18.7 °C 55.9 °F /  13.3 °C 29.81in /  1009.4hPa WSW 11.0mph /  17.7km/h 13.0mph /  20.9km/h 71% 0.00in /  0mm
19:14 65.3 °F /  18.5 °C 55.7 °F /  13.2 °C 29.81in /  1009.4hPa WSW 7.0mph /  11.3km/h 16.0mph /  25.7km/h 71% 0.00in /  0mm
19:19 65.3 °F /  18.5 °C 55.7 °F /  13.2 °C 29.81in /  1009.4hPa WSW 4.0mph /  6.4km/h 11.0mph /  17.7km/h 71% 0.00in /  0mm
19:24 65.3 °F /  18.5 °C 55.7 °F /  13.2 °C 29.81in /  1009.4hPa SW 4.0mph /  6.4km/h 12.0mph /  19.3km/h 71% 0.00in /  0mm
19:29 65.3 °F /  18.5 °C 55.7 °F /  13.2 °C 29.82in /  1009.7hPa WSW 5.0mph /  8km/h 9.0mph /  14.5km/h 71% 0.00in /  0mm
19:34 65.2 °F /  18.4 °C 55.6 °F /  13.1 °C 29.81in /  1009.4hPa West 3.0mph /  4.8km/h 11.0mph /  17.7km/h 71% 0.00in /  0mm
19:39 65.1 °F /  18.4 °C 55.5 °F /  13.1 °C 29.82in /  1009.7hPa West 8.0mph /  12.9km/h 11.0mph /  17.7km/h 71% 0.00in /  0mm
19:44 65.1 °F /  18.4 °C 55.8 °F /  13.2 °C 29.82in /  1009.7hPa WSW 6.0mph /  9.7km/h 11.0mph /  17.7km/h 72% 0.00in /  0mm
19:49 65.0 °F /  18.3 °C 55.8 °F /  13.2 °C 29.82in /  1009.7hPa WSW 5.0mph /  8km/h 11.0mph /  17.7km/h 72% 0.00in /  0mm
19:54 64.9 °F /  18.3 °C 55.7 °F /  13.2 °C 29.82in /  1009.7hPa WSW 6.0mph /  9.7km/h 11.0mph /  17.7km/h 72% 0.00in /  0mm
19:59 65.0 °F /  18.3 °C 55.8 °F /  13.2 °C 29.82in /  1009.7hPa SSW 7.0mph /  11.3km/h 9.0mph /  14.5km/h 72% 0.00in /  0mm
20:04 65.0 °F /  18.3 °C 55.8 °F /  13.2 °C 29.82in /  1009.7hPa WSW 5.0mph /  8km/h 9.0mph /  14.5km/h 72% 0.00in /  0mm
20:09 65.0 °F /  18.3 °C 55.8 °F /  13.2 °C 29.82in /  1009.7hPa SSW 4.0mph /  6.4km/h 12.0mph /  19.3km/h 72% 0.00in /  0mm
20:14 64.9 °F /  18.3 °C 55.3 °F /  12.9 °C 29.82in /  1009.7hPa SW 4.0mph /  6.4km/h 11.0mph /  17.7km/h 71% 0.00in /  0mm
20:19 65.1 °F /  18.4 °C 55.5 °F /  13.1 °C 29.82in /  1009.7hPa SW 5.0mph /  8km/h 11.0mph /  17.7km/h 71% 0.00in /  0mm
20:24 65.1 °F /  18.4 °C 55.1 °F /  12.8 °C 29.82in /  1009.7hPa SW 5.0mph /  8km/h 11.0mph /  17.7km/h 70% 0.00in /  0mm
20:29 65.1 °F /  18.4 °C 55.1 °F /  12.8 °C 29.82in /  1009.7hPa SW 6.0mph /  9.7km/h 12.0mph /  19.3km/h 70% 0.00in /  0mm
20:34 64.9 °F /  18.3 °C 55.3 °F /  12.9 °C 29.82in /  1009.7hPa SW 5.0mph /  8km/h 12.0mph /  19.3km/h 71% 0.00in /  0mm
20:39 64.8 °F /  18.2 °C 55.2 °F /  12.9 °C 29.82in /  1009.7hPa SW 4.0mph /  6.4km/h 14.0mph /  22.5km/h 71% 0.00in /  0mm
20:44 64.7 °F /  18.2 °C 55.1 °F /  12.8 °C 29.82in /  1009.7hPa SW 5.0mph /  8km/h 14.0mph /  22.5km/h 71% 0.00in /  0mm
20:49 64.7 °F /  18.2 °C 55.1 °F /  12.8 °C 29.82in /  1009.7hPa SW 5.0mph /  8km/h 12.0mph /  19.3km/h 71% 0.00in /  0mm
20:54 64.6 °F /  18.1 °C 55.0 °F /  12.8 °C 29.82in /  1009.7hPa South 7.0mph /  11.3km/h 10.0mph /  16.1km/h 71% 0.00in /  0mm
20:59 64.5 °F /  18.1 °C 54.9 °F /  12.7 °C 29.82in /  1009.7hPa West 4.0mph /  6.4km/h 10.0mph /  16.1km/h 71% 0.00in /  0mm
21:04 64.4 °F /  18 °C 54.8 °F /  12.7 °C 29.82in /  1009.7hPa SW 3.0mph /  4.8km/h 9.0mph /  14.5km/h 71% 0.00in /  0mm
21:09 64.3 °F /  17.9 °C 54.7 °F /  12.6 °C 29.83in /  1010hPa West 8.0mph /  12.9km/h 9.0mph /  14.5km/h 71% 0.00in /  0mm
21:14 64.2 °F /  17.9 °C 54.6 °F /  12.6 °C 29.83in /  1010hPa WSW 4.0mph /  6.4km/h 9.0mph /  14.5km/h 71% 0.00in /  0mm
21:19 64.1 °F /  17.8 °C 54.5 °F /  12.5 °C 29.83in /  1010hPa SW 4.0mph /  6.4km/h 8.0mph /  12.9km/h 71% 0.00in /  0mm
21:24 64.1 °F /  17.8 °C 54.5 °F /  12.5 °C 29.83in /  1010hPa WSW 4.0mph /  6.4km/h 8.0mph /  12.9km/h 71% 0.00in /  0mm
21:29 63.9 °F /  17.7 °C 54.3 °F /  12.4 °C 29.83in /  1010hPa WSW 4.0mph /  6.4km/h 8.0mph /  12.9km/h 71% 0.00in /  0mm
21:34 63.8 °F /  17.7 °C 54.6 °F /  12.6 °C 29.83in /  1010hPa SW 4.0mph /  6.4km/h 8.0mph /  12.9km/h 72% 0.00in /  0mm
21:39 63.6 °F /  17.6 °C 54.4 °F /  12.4 °C 29.83in /  1010hPa SSW 3.0mph /  4.8km/h 6.0mph /  9.7km/h 72% 0.00in /  0mm
21:44 63.4 °F /  17.4 °C 54.6 °F /  12.6 °C 29.83in /  1010hPa SSW 5.0mph /  8km/h 8.0mph /  12.9km/h 73% 0.00in /  0mm
21:49 63.3 °F /  17.4 °C 54.5 °F /  12.5 °C 29.83in /  1010hPa SW 3.0mph /  4.8km/h 8.0mph /  12.9km/h 73% 0.00in /  0mm
21:54 63.3 °F /  17.4 °C 54.5 °F /  12.5 °C 29.83in /  1010hPa SW 4.0mph /  6.4km/h 8.0mph /  12.9km/h 73% 0.00in /  0mm
21:59 63.2 °F /  17.3 °C 54.4 °F /  12.4 °C 29.84in /  1010.4hPa SW 4.0mph /  6.4km/h 5.0mph /  8km/h 73% 0.00in /  0mm
22:04 63.2 °F /  17.3 °C 54.4 °F /  12.4 °C 29.84in /  1010.4hPa West 2.0mph /  3.2km/h 8.0mph /  12.9km/h 73% 0.00in /  0mm
22:09 63.1 °F /  17.3 °C 54.3 °F /  12.4 °C 29.84in /  1010.4hPa SW 4.0mph /  6.4km/h 6.0mph /  9.7km/h 73% 0.00in /  0mm
22:14 63.0 °F /  17.2 °C 54.6 °F /  12.6 °C 29.84in /  1010.4hPa SSW 3.0mph /  4.8km/h 6.0mph /  9.7km/h 74% 0.00in /  0mm
22:19 63.2 °F /  17.3 °C 54.4 °F /  12.4 °C 29.84in /  1010.4hPa SW 3.0mph /  4.8km/h 7.0mph /  11.3km/h 73% 0.00in /  0mm
22:24 63.3 °F /  17.4 °C 54.5 °F /  12.5 °C 29.84in /  1010.4hPa SW 4.0mph /  6.4km/h 7.0mph /  11.3km/h 73% 0.00in /  0mm
22:29 63.4 °F /  17.4 °C 54.6 °F /  12.6 °C 29.84in /  1010.4hPa SW 3.0mph /  4.8km/h 7.0mph /  11.3km/h 73% 0.00in /  0mm
22:34 63.3 °F /  17.4 °C 54.5 °F /  12.5 °C 29.84in /  1010.4hPa West 3.0mph /  4.8km/h 5.0mph /  8km/h 73% 0.00in /  0mm
22:39 63.3 °F /  17.4 °C 54.1 °F /  12.3 °C 29.84in /  1010.4hPa SSW 1.0mph /  1.6km/h 5.0mph /  8km/h 72% 0.00in /  0mm
22:44 63.4 °F /  17.4 °C 54.2 °F /  12.3 °C 29.84in /  1010.4hPa SW 4.0mph /  6.4km/h 5.0mph /  8km/h 72% 0.00in /  0mm
22:49 63.5 °F /  17.5 °C 53.9 °F /  12.2 °C 29.85in /  1010.7hPa SW 2.0mph /  3.2km/h 5.0mph /  8km/h 71% 0.00in /  0mm
22:54 63.6 °F /  17.6 °C 54.0 °F /  12.2 °C 29.85in /  1010.7hPa SW 3.0mph /  4.8km/h 6.0mph /  9.7km/h 71% 0.00in /  0mm
22:59 63.7 °F /  17.6 °C 53.7 °F /  12.1 °C 29.85in /  1010.7hPa SW 3.0mph /  4.8km/h 6.0mph /  9.7km/h 70% 0.00in /  0mm
23:04 63.9 °F /  17.7 °C 53.9 °F /  12.2 °C 29.85in /  1010.7hPa WSW 3.0mph /  4.8km/h 7.0mph /  11.3km/h 70% 0.00in /  0mm
23:09 64.0 °F /  17.8 °C 54.0 °F /  12.2 °C 29.85in /  1010.7hPa SW 2.0mph /  3.2km/h 7.0mph /  11.3km/h 70% 0.00in /  0mm
23:14 64.3 °F /  17.9 °C 54.3 °F /  12.4 °C 29.85in /  1010.7hPa West 1.0mph /  1.6km/h 7.0mph /  11.3km/h 70% 0.00in /  0mm
23:19 64.4 °F /  18 °C 54.4 °F /  12.4 °C 29.85in /  1010.7hPa SW 3.0mph /  4.8km/h 6.0mph /  9.7km/h 70% 0.00in /  0mm
23:24 64.5 °F /  18.1 °C 54.5 °F /  12.5 °C 29.85in /  1010.7hPa WSW 3.0mph /  4.8km/h 4.0mph /  6.4km/h 70% 0.00in /  0mm
23:29 64.4 °F /  18 °C 54.4 °F /  12.4 °C 29.85in /  1010.7hPa Calm   5.0mph /  8km/h 70% 0.00in /  0mm
23:34 64.3 °F /  17.9 °C 54.7 °F /  12.6 °C 29.85in /  1010.7hPa Calm   3.0mph /  4.8km/h 71% 0.00in /  0mm
23:39 64.1 °F /  17.8 °C 54.5 °F /  12.5 °C 29.85in /  1010.7hPa Calm   4.0mph /  6.4km/h 71% 0.00in /  0mm
23:44 64.0 °F /  17.8 °C 54.4 °F /  12.4 °C 29.85in /  1010.7hPa Calm   3.0mph /  4.8km/h 71% 0.00in /  0mm
23:49 64.0 °F /  17.8 °C 54.0 °F /  12.2 °C 29.85in /  1010.7hPa Calm   3.0mph /  4.8km/h 70% 0.00in /  0mm
23:54 64.3 °F /  17.9 °C 53.9 °F /  12.2 °C 29.85in /  1010.7hPa WSW 1.0mph /  1.6km/h 4.0mph /  6.4km/h 69% 0.00in /  0mm
23:59 64.3 °F /  17.9 °C 53.9 °F /  12.2 °C 29.85in /  1010.7hPa Calm   4.0mph /  6.4km/h 69% 0.00in /  0mm
Buffalo, New York, USA
Compliments of Weather Underground - 2.5 mb